createdAt,value
2023-04-16T00:00:18.778Z,8.79
2023-04-16T00:02:45.444Z,8.78
2023-04-16T00:05:11.877Z,8.72
2023-04-16T00:07:38.304Z,8.74
2023-04-16T00:10:05.296Z,8.74
2023-04-16T00:12:31.598Z,8.77
2023-04-16T00:14:58.039Z,8.73
2023-04-16T00:17:24.621Z,8.75
2023-04-16T00:19:50.944Z,8.75
2023-04-16T00:22:17.288Z,8.77
2023-04-16T00:24:43.622Z,8.74
2023-04-16T00:27:10.604Z,8.77
2023-04-16T00:29:36.967Z,8.72
2023-04-16T00:32:03.399Z,8.71
2023-04-16T00:34:29.731Z,8.73
2023-04-16T00:36:56.039Z,8.70
2023-04-16T00:39:22.366Z,8.70
2023-04-16T00:41:49.179Z,8.74
2023-04-16T00:44:15.504Z,8.73
2023-04-16T00:46:42.770Z,8.73
2023-04-16T00:49:10.290Z,8.70
2023-04-16T00:51:36.900Z,8.68
2023-04-16T00:54:03.999Z,8.75
2023-04-16T00:56:30.537Z,8.74
2023-04-16T00:58:56.858Z,8.72
2023-04-16T01:01:23.286Z,8.68
2023-04-16T01:03:50.039Z,8.65
2023-04-16T01:06:17.992Z,8.66
2023-04-16T01:08:45.091Z,8.78
2023-04-16T01:11:12.079Z,8.71
2023-04-16T01:13:39.486Z,8.68
2023-04-16T01:16:11.166Z,8.73
2023-04-16T01:18:38.866Z,8.72
2023-04-16T01:21:05.909Z,8.71
2023-04-16T01:23:32.240Z,8.68
2023-04-16T01:25:58.610Z,8.70
2023-04-16T01:28:25.034Z,8.66
2023-04-16T01:30:51.556Z,8.67
2023-04-16T01:33:18.848Z,8.69
2023-04-16T01:35:45.423Z,8.70
2023-04-16T01:38:11.817Z,8.67
2023-04-16T01:40:38.346Z,8.71
2023-04-16T01:43:05.151Z,8.66
2023-04-16T01:45:33.493Z,8.69
2023-04-16T01:48:00.292Z,8.66
2023-04-16T01:50:27.033Z,8.62
2023-04-16T01:52:53.346Z,8.65
2023-04-16T01:55:19.782Z,8.68
2023-04-16T01:57:46.109Z,8.65
2023-04-16T02:00:12.549Z,8.57
2023-04-16T02:02:39.609Z,8.61
2023-04-16T02:05:06.340Z,8.67
2023-04-16T02:07:32.744Z,8.66
2023-04-16T02:09:59.150Z,8.63
2023-04-16T02:12:26.490Z,8.60
2023-04-16T02:14:52.920Z,8.65
2023-04-16T02:17:19.326Z,8.66
2023-04-16T02:19:45.662Z,8.64
2023-04-16T02:22:12.010Z,8.61
2023-04-16T02:24:38.311Z,8.56
2023-04-16T02:27:04.608Z,8.66
2023-04-16T02:29:31.793Z,8.64
2023-04-16T02:31:59.492Z,8.60
2023-04-16T02:34:25.866Z,8.61
2023-04-16T02:36:52.233Z,8.61
2023-04-16T02:39:18.572Z,8.61
2023-04-16T02:41:44.910Z,8.58
2023-04-16T02:44:11.291Z,8.59
2023-04-16T02:46:37.632Z,8.54
2023-04-16T02:49:03.928Z,8.60
2023-04-16T02:51:30.923Z,8.60
2023-04-16T02:53:57.311Z,8.61
2023-04-16T02:56:23.594Z,8.60
2023-04-16T02:58:49.948Z,8.66
2023-04-16T03:01:16.377Z,8.65
2023-04-16T03:03:42.758Z,8.60
2023-04-16T03:06:09.120Z,8.63
2023-04-16T03:08:35.438Z,8.59
2023-04-16T03:11:02.092Z,8.57
2023-04-16T03:13:28.469Z,8.51
2023-04-16T03:15:54.779Z,8.42
2023-04-16T03:18:21.286Z,8.38
2023-04-16T03:20:51.768Z,8.32
2023-04-16T03:23:18.080Z,8.27
2023-04-16T03:25:47.021Z,8.12
2023-04-16T03:28:13.967Z,7.98
2023-04-16T03:30:40.276Z,8.01
2023-04-16T03:33:06.635Z,8.02
2023-04-16T03:35:33.257Z,8.01
2023-04-16T03:37:59.585Z,8.00
2023-04-16T03:40:25.964Z,8.00
2023-04-16T03:42:52.317Z,8.04
2023-04-16T03:45:18.616Z,8.17
2023-04-16T03:47:45.031Z,8.29
2023-04-16T03:50:11.672Z,8.45
2023-04-16T03:52:38.039Z,8.54
2023-04-16T03:55:04.795Z,8.55
2023-04-16T03:57:31.069Z,8.56
2023-04-16T03:59:57.613Z,8.55
2023-04-16T04:02:24.337Z,8.50
2023-04-16T04:04:50.864Z,8.54
2023-04-16T04:07:17.221Z,8.58
2023-04-16T04:09:43.531Z,8.71
2023-04-16T04:12:10.137Z,8.71
2023-04-16T04:14:39.705Z,8.69
2023-04-16T04:17:06.929Z,8.69
2023-04-16T04:19:33.278Z,8.68
2023-04-16T04:21:59.901Z,8.72
2023-04-16T04:24:26.985Z,8.70
2023-04-16T04:26:53.286Z,8.64
2023-04-16T04:29:19.619Z,8.70
2023-04-16T04:31:45.979Z,8.68
2023-04-16T04:34:12.317Z,8.68
2023-04-16T04:36:38.617Z,8.65
2023-04-16T04:39:04.957Z,8.66
2023-04-16T04:41:31.447Z,8.67
2023-04-16T04:43:57.737Z,8.69
2023-04-16T04:46:24.052Z,8.67
2023-04-16T04:48:50.477Z,8.63
2023-04-16T04:51:16.844Z,8.64
2023-04-16T04:53:43.216Z,8.60
2023-04-16T04:56:12.754Z,8.61
2023-04-16T04:58:40.067Z,8.62
2023-04-16T05:01:06.656Z,8.65
2023-04-16T05:03:33.165Z,8.61
2023-04-16T05:05:59.630Z,8.57
2023-04-16T05:08:26.132Z,8.55
2023-04-16T05:10:52.514Z,8.55
2023-04-16T05:13:18.879Z,8.59
2023-04-16T05:15:45.682Z,8.59
2023-04-16T05:18:11.970Z,8.60
2023-04-16T05:20:38.283Z,8.59
2023-04-16T05:23:04.614Z,8.61
2023-04-16T05:25:31.055Z,8.65
2023-04-16T05:27:57.401Z,8.61
2023-04-16T05:30:23.755Z,8.59
2023-04-16T05:32:50.232Z,8.61
2023-04-16T05:35:17.655Z,8.64
2023-04-16T05:37:44.188Z,8.67
2023-04-16T05:40:13.111Z,8.70
2023-04-16T05:42:39.480Z,8.70
2023-04-16T05:45:06.344Z,8.73
2023-04-16T05:47:32.804Z,8.71
2023-04-16T05:49:59.136Z,8.81
2023-04-16T05:52:25.556Z,8.91
2023-04-16T05:54:51.922Z,8.93
2023-04-16T05:57:18.216Z,9.04
2023-04-16T05:59:44.583Z,9.09
2023-04-16T06:02:11.056Z,9.07
2023-04-16T06:04:37.509Z,9.03
2023-04-16T06:07:03.862Z,9.06
2023-04-16T06:09:30.399Z,9.12
2023-04-16T06:11:57.823Z,9.10
2023-04-16T06:14:24.166Z,9.14
2023-04-16T06:16:50.952Z,9.07
2023-04-16T06:19:17.264Z,8.99
2023-04-16T06:21:43.634Z,9.01
2023-04-16T06:24:10.017Z,9.01
2023-04-16T06:26:36.378Z,9.05
2023-04-16T06:29:02.762Z,9.04
2023-04-16T06:31:29.943Z,9.14
2023-04-16T06:33:56.617Z,9.22
2023-04-16T06:36:22.992Z,9.19
2023-04-16T06:38:49.328Z,9.19
2023-04-16T06:41:15.671Z,9.13
2023-04-16T06:43:42.024Z,9.10
2023-04-16T06:46:08.331Z,9.06
2023-04-16T06:48:34.662Z,9.03
2023-04-16T06:51:01.973Z,8.99
2023-04-16T06:53:28.339Z,9.08
2023-04-16T06:55:54.708Z,9.13
2023-04-16T06:58:22.317Z,9.13
2023-04-16T07:00:48.799Z,9.11
2023-04-16T07:03:15.399Z,9.06
2023-04-16T07:05:41.819Z,9.12
2023-04-16T07:08:08.108Z,9.07
2023-04-16T07:10:34.432Z,9.13
2023-04-16T07:13:01.608Z,9.21
2023-04-16T07:15:28.266Z,9.21
2023-04-16T07:17:55.087Z,9.26
2023-04-16T07:20:21.438Z,9.31
2023-04-16T07:22:47.820Z,9.23
2023-04-16T07:25:14.179Z,9.21
2023-04-16T07:27:40.505Z,9.19
2023-04-16T07:30:07.923Z,9.17
2023-04-16T07:32:34.352Z,9.16
2023-04-16T07:35:00.765Z,9.13
2023-04-16T07:37:27.182Z,9.10
2023-04-16T07:39:56.861Z,9.09
2023-04-16T07:42:23.793Z,9.18
2023-04-16T07:44:50.110Z,9.29
2023-04-16T07:47:16.463Z,9.36
2023-04-16T07:49:42.834Z,9.42
2023-04-16T07:52:09.241Z,9.47
2023-04-16T07:54:35.825Z,9.62
2023-04-16T07:57:02.249Z,9.69
2023-04-16T07:59:28.663Z,9.77
2023-04-16T08:01:55.280Z,9.65
2023-04-16T08:04:25.424Z,9.68
2023-04-16T08:06:52.211Z,9.55
2023-04-16T08:09:23.616Z,9.40
2023-04-16T08:11:50.183Z,9.40
2023-04-16T08:14:17.448Z,9.35
2023-04-16T08:16:43.948Z,9.31
2023-04-16T08:19:10.595Z,9.33
2023-04-16T08:21:37.187Z,9.37
2023-04-16T08:24:03.728Z,9.41
2023-04-16T08:26:30.043Z,9.44
2023-04-16T08:28:56.402Z,9.48
2023-04-16T08:31:22.768Z,9.53
2023-04-16T08:33:49.142Z,9.59
2023-04-16T08:36:15.618Z,9.64
2023-04-16T08:38:41.937Z,9.72
2023-04-16T08:41:12.243Z,9.83
2023-04-16T08:43:43.943Z,9.98
2023-04-16T08:46:11.967Z,9.95
2023-04-16T08:48:38.684Z,9.99
2023-04-16T08:51:10.253Z,10.01
2023-04-16T08:53:48.317Z,10.07
2023-04-16T08:56:16.359Z,10.02
2023-04-16T08:58:43.257Z,10.04
2023-04-16T09:01:10.841Z,10.02
2023-04-16T09:03:37.978Z,9.90
2023-04-16T09:06:04.670Z,9.90
2023-04-16T09:08:32.118Z,10.00
2023-04-16T09:10:59.461Z,10.05
2023-04-16T09:13:25.783Z,10.16
2023-04-16T09:15:53.829Z,10.24
2023-04-16T09:18:21.132Z,10.34
2023-04-16T09:20:48.943Z,10.37
2023-04-16T09:23:15.295Z,10.38
2023-04-16T09:25:41.601Z,10.60
2023-04-16T09:28:08.852Z,10.85
2023-04-16T09:30:37.042Z,10.92
2023-04-16T09:33:22.428Z,11.36
2023-04-16T09:35:52.970Z,11.46
2023-04-16T09:38:20.552Z,11.49
2023-04-16T09:40:49.479Z,11.66
2023-04-16T09:43:17.796Z,11.87
2023-04-16T09:45:54.722Z,11.63
2023-04-16T09:48:32.314Z,12.26
2023-04-16T09:51:00.241Z,12.34
2023-04-16T09:53:31.465Z,12.58
2023-04-16T09:56:03.136Z,12.22
2023-04-16T09:58:29.686Z,12.18
2023-04-16T10:01:01.438Z,12.26
2023-04-16T10:03:32.014Z,12.23
2023-04-16T10:06:08.846Z,12.34
2023-04-16T10:08:36.025Z,12.08
2023-04-16T10:11:02.530Z,11.59
2023-04-16T10:13:30.965Z,11.56
2023-04-16T10:15:57.886Z,11.58
2023-04-16T10:18:24.487Z,11.52
2023-04-16T10:20:51.490Z,11.46
2023-04-16T10:23:19.831Z,11.65
2023-04-16T10:25:47.516Z,11.71
2023-04-16T10:28:14.850Z,11.72
2023-04-16T10:30:48.080Z,11.57
2023-04-16T10:33:14.916Z,11.75
2023-04-16T10:35:41.418Z,11.80
2023-04-16T10:38:29.956Z,11.97
2023-04-16T10:41:02.030Z,12.19
2023-04-16T10:43:30.314Z,12.17
2023-04-16T10:45:57.252Z,12.16
2023-04-16T10:48:25.503Z,12.42
2023-04-16T10:50:57.357Z,12.76
2023-04-16T10:53:26.687Z,12.94
2023-04-16T10:56:02.582Z,12.85
2023-04-16T10:58:30.185Z,12.19
2023-04-16T11:01:00.335Z,12.25
2023-04-16T11:03:33.448Z,12.14
2023-04-16T11:06:10.914Z,12.14
2023-04-16T11:08:53.271Z,12.21
2023-04-16T11:11:21.929Z,12.01
2023-04-16T11:13:48.238Z,11.68
2023-04-16T11:16:16.161Z,11.45
2023-04-16T11:18:47.761Z,11.37
2023-04-16T11:21:19.441Z,11.19
2023-04-16T11:23:47.794Z,11.13
2023-04-16T11:26:30.651Z,11.27
2023-04-16T11:28:57.364Z,11.41
2023-04-16T11:31:24.257Z,11.49
2023-04-16T11:33:50.808Z,11.40
2023-04-16T11:36:17.280Z,11.52
2023-04-16T11:38:43.621Z,11.56
2023-04-16T11:41:11.057Z,11.60
2023-04-16T11:43:37.541Z,11.73
2023-04-16T11:46:20.042Z,11.82
2023-04-16T11:48:55.424Z,11.84
2023-04-16T11:51:23.208Z,11.96
2023-04-16T11:53:53.866Z,12.16
2023-04-16T11:56:31.201Z,12.24
2023-04-16T11:59:18.138Z,12.29
2023-04-16T12:01:52.471Z,12.40
2023-04-16T12:04:20.800Z,12.51
2023-04-16T12:07:12.863Z,12.50
2023-04-16T12:09:41.881Z,12.63
2023-04-16T12:12:30.574Z,12.30
2023-04-16T12:15:00.008Z,12.49
2023-04-16T12:17:26.583Z,12.72
2023-04-16T12:19:57.302Z,12.96
2023-04-16T12:22:31.089Z,12.92
2023-04-16T12:25:10.575Z,13.08
2023-04-16T12:27:48.596Z,13.19
2023-04-16T12:30:17.705Z,13.21
2023-04-16T12:32:45.985Z,13.32
2023-04-16T12:35:12.835Z,13.52
2023-04-16T12:37:39.706Z,13.60
2023-04-16T12:40:07.022Z,13.56
2023-04-16T12:42:36.807Z,13.93
2023-04-16T12:45:04.914Z,13.98
2023-04-16T12:47:34.538Z,14.17
2023-04-16T12:50:01.039Z,13.63
2023-04-16T12:52:27.437Z,13.63
2023-04-16T12:54:53.827Z,13.77
2023-04-16T12:57:20.419Z,13.64
2023-04-16T12:59:49.363Z,13.70
2023-04-16T13:02:16.677Z,13.94
2023-04-16T13:04:43.188Z,13.94
2023-04-16T13:07:09.604Z,13.77
2023-04-16T13:09:37.704Z,13.72
2023-04-16T13:12:05.846Z,13.94
2023-04-16T13:14:32.142Z,14.13
2023-04-16T13:16:58.493Z,14.05
2023-04-16T13:19:24.823Z,13.95
2023-04-16T13:21:51.194Z,14.07
2023-04-16T13:24:17.549Z,13.91
2023-04-16T13:26:43.904Z,14.13
2023-04-16T13:29:11.007Z,14.18
2023-04-16T13:31:38.532Z,14.46
2023-04-16T13:34:04.893Z,14.61
2023-04-16T13:36:32.912Z,14.61
2023-04-16T13:38:59.599Z,14.50
2023-04-16T13:41:26.227Z,14.36
2023-04-16T13:43:54.145Z,14.48
2023-04-16T13:46:20.576Z,14.20
2023-04-16T13:48:47.015Z,14.33
2023-04-16T13:51:15.291Z,14.57
2023-04-16T13:53:41.723Z,14.32
2023-04-16T13:56:08.073Z,14.58
2023-04-16T13:58:34.454Z,14.48
2023-04-16T14:01:01.018Z,14.30
2023-04-16T14:03:27.625Z,14.31
2023-04-16T14:05:54.120Z,14.37
2023-04-16T14:08:21.144Z,14.39
2023-04-16T14:10:48.135Z,14.34
2023-04-16T14:13:15.108Z,14.48
2023-04-16T14:15:41.462Z,14.55
2023-04-16T14:18:07.972Z,14.44
2023-04-16T14:20:34.396Z,14.29
2023-04-16T14:23:00.910Z,14.19
2023-04-16T14:25:28.039Z,14.50
2023-04-16T14:27:54.971Z,14.63
2023-04-16T14:30:21.331Z,14.72
2023-04-16T14:32:47.614Z,14.87
2023-04-16T14:35:13.975Z,14.63
2023-04-16T14:37:40.752Z,15.03
2023-04-16T14:40:08.713Z,14.80
2023-04-16T14:42:36.595Z,14.77
2023-04-16T14:45:06.327Z,14.58
2023-04-16T14:47:34.228Z,14.64
2023-04-16T14:50:01.474Z,14.60
2023-04-16T14:52:27.973Z,14.74
2023-04-16T14:54:57.531Z,15.01
2023-04-16T14:57:24.058Z,14.97
2023-04-16T14:59:50.425Z,15.09
2023-04-16T15:02:17.398Z,15.21
2023-04-16T15:04:44.096Z,15.26
2023-04-16T15:07:10.627Z,14.99
2023-04-16T15:09:37.018Z,14.82
2023-04-16T15:12:04.204Z,14.94
2023-04-16T15:14:30.756Z,14.85
2023-04-16T15:16:57.274Z,14.90
2023-04-16T15:19:23.634Z,15.11
2023-04-16T15:21:50.330Z,15.11
2023-04-16T15:24:16.746Z,14.93
2023-04-16T15:26:43.248Z,14.89
2023-04-16T15:29:09.589Z,14.95
2023-04-16T15:31:35.924Z,14.64
2023-04-16T15:34:02.268Z,14.70
2023-04-16T15:36:28.639Z,14.84
2023-04-16T15:38:54.938Z,14.89
2023-04-16T15:41:21.647Z,15.21
2023-04-16T15:43:47.971Z,15.15
2023-04-16T15:46:15.100Z,15.07
2023-04-16T15:48:41.694Z,15.22
2023-04-16T15:51:08.422Z,14.87
2023-04-16T15:53:34.926Z,14.61
2023-04-16T15:56:01.412Z,14.54
2023-04-16T15:58:27.883Z,14.74
2023-04-16T16:00:54.233Z,15.08
2023-04-16T16:03:23.192Z,15.41
2023-04-16T16:05:49.748Z,15.18
2023-04-16T16:08:16.709Z,14.96
2023-04-16T16:10:43.257Z,14.81
2023-04-16T16:13:13.061Z,14.47
2023-04-16T16:15:41.216Z,14.40
2023-04-16T16:18:07.690Z,14.16
2023-04-16T16:20:34.808Z,14.26
2023-04-16T16:23:01.494Z,14.06
2023-04-16T16:25:28.009Z,14.21
2023-04-16T16:27:54.314Z,14.32
2023-04-16T16:30:20.717Z,14.31
2023-04-16T16:32:47.163Z,14.21
2023-04-16T16:35:13.615Z,14.06
2023-04-16T16:37:40.012Z,14.11
2023-04-16T16:40:07.819Z,14.16
2023-04-16T16:42:34.303Z,14.28
2023-04-16T16:45:05.018Z,14.25
2023-04-16T16:47:34.595Z,14.03
2023-04-16T16:50:02.976Z,13.81
2023-04-16T16:52:29.666Z,13.58
2023-04-16T16:54:56.730Z,13.56
2023-04-16T16:57:23.908Z,13.39
2023-04-16T16:59:50.921Z,13.28
2023-04-16T17:02:17.999Z,13.37
2023-04-16T17:04:44.835Z,13.51
2023-04-16T17:07:11.758Z,13.46
2023-04-16T17:09:38.634Z,13.26
2023-04-16T17:12:05.649Z,13.10
2023-04-16T17:14:32.918Z,13.00
2023-04-16T17:16:59.276Z,12.86
2023-04-16T17:19:25.948Z,12.86
2023-04-16T17:21:53.572Z,12.67
2023-04-16T17:24:19.908Z,12.59
2023-04-16T17:26:46.267Z,12.58
2023-04-16T17:29:12.596Z,12.47
2023-04-16T17:31:38.942Z,12.37
2023-04-16T17:34:06.250Z,12.24
2023-04-16T17:36:32.671Z,12.23
2023-04-16T17:38:59.294Z,12.16
2023-04-16T17:41:25.702Z,12.15
2023-04-16T17:43:52.110Z,12.12
2023-04-16T17:46:18.428Z,12.03
2023-04-16T17:48:44.891Z,11.97
2023-04-16T17:51:11.810Z,11.93
2023-04-16T17:53:38.214Z,11.91
2023-04-16T17:56:04.928Z,11.93
2023-04-16T17:58:32.880Z,11.92
2023-04-16T18:00:59.431Z,11.87
2023-04-16T18:03:26.435Z,11.81
2023-04-16T18:05:52.995Z,11.78
2023-04-16T18:08:19.313Z,11.71
2023-04-16T18:10:45.762Z,11.69
2023-04-16T18:13:12.138Z,11.63
2023-04-16T18:15:38.702Z,11.60
2023-04-16T18:18:06.047Z,11.57
2023-04-16T18:20:32.509Z,11.51
2023-04-16T18:22:58.935Z,11.44
2023-04-16T18:25:33.896Z,11.45
2023-04-16T18:28:02.002Z,11.38
2023-04-16T18:30:28.571Z,11.32
2023-04-16T18:33:25.485Z,11.29
2023-04-16T18:35:43.185Z,11.27
2023-04-16T18:38:09.579Z,11.25
2023-04-16T18:40:37.176Z,11.28
2023-04-16T18:43:03.849Z,11.25
2023-04-16T18:45:30.553Z,11.21
2023-04-16T18:47:59.832Z,11.20
2023-04-16T18:50:26.177Z,11.17
2023-04-16T18:52:52.720Z,11.17
2023-04-16T18:55:19.569Z,11.20
2023-04-16T18:57:46.000Z,11.14
2023-04-16T19:00:13.054Z,11.13
2023-04-16T19:02:40.359Z,11.08
2023-04-16T19:05:08.122Z,11.08
2023-04-16T19:07:35.207Z,11.12
2023-04-16T19:10:04.709Z,11.07
2023-04-16T19:12:31.773Z,11.08
2023-04-16T19:14:58.143Z,11.04
2023-04-16T19:17:24.533Z,11.02
2023-04-16T19:19:51.235Z,11.03
2023-04-16T19:22:17.599Z,11.02
2023-04-16T19:24:43.910Z,11.02
2023-04-16T19:27:10.338Z,11.04
2023-04-16T19:29:36.869Z,10.96
2023-04-16T19:32:05.742Z,10.95
2023-04-16T19:34:32.157Z,10.95
2023-04-16T19:36:58.444Z,10.87
2023-04-16T19:39:28.093Z,10.92
2023-04-16T19:41:54.430Z,10.91
2023-04-16T19:44:22.964Z,10.94
2023-04-16T19:46:49.256Z,10.93
2023-04-16T19:49:15.885Z,10.89
2023-04-16T19:51:42.234Z,10.85
2023-04-16T19:54:08.972Z,10.87
2023-04-16T19:56:35.700Z,10.87
2023-04-16T19:59:02.462Z,10.90
2023-04-16T20:01:30.683Z,10.82
2023-04-16T20:03:57.076Z,10.79
2023-04-16T20:06:24.000Z,10.79
2023-04-16T20:08:50.379Z,10.73
2023-04-16T20:11:17.612Z,10.71
2023-04-16T20:13:47.939Z,10.72
2023-04-16T20:16:14.510Z,10.74
2023-04-16T20:18:42.464Z,10.74
2023-04-16T20:21:11.534Z,10.71
2023-04-16T20:23:37.922Z,10.68
2023-04-16T20:26:04.508Z,10.63
2023-04-16T20:28:30.902Z,10.63
2023-04-16T20:30:57.267Z,10.66
2023-04-16T20:33:23.658Z,10.66
2023-04-16T20:35:52.018Z,10.60
2023-04-16T20:38:23.503Z,10.56
2023-04-16T20:40:58.004Z,10.56
2023-04-16T20:43:25.965Z,10.47
2023-04-16T20:45:52.349Z,10.52
2023-04-16T20:48:21.212Z,10.52
2023-04-16T20:50:47.658Z,10.54
2023-04-16T20:53:14.008Z,10.47
2023-04-16T20:55:42.933Z,10.48
2023-04-16T20:58:09.268Z,10.42
2023-04-16T21:00:36.069Z,10.43
2023-04-16T21:03:02.467Z,10.33
2023-04-16T21:05:29.798Z,10.33
2023-04-16T21:07:56.088Z,10.40
2023-04-16T21:10:22.403Z,10.36
2023-04-16T21:12:48.677Z,10.33
2023-04-16T21:15:15.118Z,10.43
2023-04-16T21:17:41.594Z,10.44
2023-04-16T21:20:11.799Z,10.38
2023-04-16T21:22:38.188Z,10.46
2023-04-16T21:25:05.180Z,10.39
2023-04-16T21:27:31.551Z,10.42
2023-04-16T21:29:58.001Z,10.49
2023-04-16T21:32:33.144Z,10.47
2023-04-16T21:34:59.529Z,10.44
2023-04-16T21:37:25.854Z,10.40
2023-04-16T21:39:52.167Z,10.42
2023-04-16T21:42:18.475Z,10.54
2023-04-16T21:44:44.836Z,10.54
2023-04-16T21:47:11.332Z,10.49
2023-04-16T21:49:37.643Z,10.42
2023-04-16T21:52:04.177Z,10.47
2023-04-16T21:54:30.547Z,10.52
2023-04-16T21:56:58.076Z,10.50
2023-04-16T21:59:24.405Z,10.42
2023-04-16T22:01:50.817Z,10.35
2023-04-16T22:04:17.757Z,10.41
2023-04-16T22:06:46.095Z,10.48
2023-04-16T22:09:12.521Z,10.50
2023-04-16T22:11:38.896Z,10.56
2023-04-16T22:14:08.720Z,10.54
2023-04-16T22:16:35.810Z,10.51
2023-04-16T22:19:02.207Z,10.49
2023-04-16T22:21:28.493Z,10.49
2023-04-16T22:23:54.776Z,10.50
2023-04-16T22:26:21.131Z,10.46
2023-04-16T22:28:47.416Z,10.49
2023-04-16T22:31:13.791Z,10.48
2023-04-16T22:33:40.091Z,10.47
2023-04-16T22:36:06.665Z,10.45
2023-04-16T22:38:33.010Z,10.44
2023-04-16T22:40:59.409Z,10.38
2023-04-16T22:43:25.866Z,10.40
2023-04-16T22:46:06.526Z,10.36
2023-04-16T22:48:36.162Z,10.43
2023-04-16T22:51:02.868Z,10.33
2023-04-16T22:53:29.213Z,10.34
2023-04-16T22:55:55.674Z,10.26
2023-04-16T22:58:22.118Z,10.35
2023-04-16T23:00:49.106Z,10.30
2023-04-16T23:03:15.527Z,10.31
2023-04-16T23:05:41.844Z,10.35
2023-04-16T23:08:08.254Z,10.33
2023-04-16T23:10:34.682Z,10.31
2023-04-16T23:13:01.031Z,10.26
2023-04-16T23:15:27.443Z,10.22
2023-04-16T23:17:53.822Z,10.17
2023-04-16T23:20:20.178Z,10.21
2023-04-16T23:22:46.756Z,10.26
2023-04-16T23:25:15.420Z,10.21
2023-04-16T23:27:41.706Z,10.12
2023-04-16T23:30:08.632Z,10.04
2023-04-16T23:32:35.176Z,9.94
2023-04-16T23:35:01.545Z,9.90
2023-04-16T23:37:27.979Z,9.77
2023-04-16T23:39:54.306Z,9.62
2023-04-16T23:42:20.598Z,9.56
2023-04-16T23:44:46.971Z,9.45
2023-04-16T23:47:13.305Z,9.42
2023-04-16T23:49:42.072Z,9.45
2023-04-16T23:52:08.441Z,9.34
2023-04-16T23:54:34.815Z,9.32
2023-04-16T23:57:01.590Z,9.30
2023-04-16T23:59:27.905Z,9.26
